sensor_id;sensor_type;location;lat;lon;timestamp;P1;durP1;ratioP1;P2;durP2;ratioP2
48209;SDS011;33999;52.252;9.616;2022-10-19T01:06:29;7.88;;;1.67;;
48209;SDS011;33999;52.252;9.616;2022-10-19T01:10:03;4.22;;;1.55;;
48209;SDS011;33999;52.252;9.616;2022-10-19T01:13:19;7.07;;;1.50;;
48209;SDS011;33999;52.252;9.616;2022-10-19T01:17:23;9.13;;;1.60;;
48209;SDS011;33999;52.252;9.616;2022-10-19T01:21:39;6.82;;;1.60;;
48209;SDS011;33999;52.252;9.616;2022-10-19T01:24:58;5.18;;;1.33;;
48209;SDS011;33999;52.252;9.616;2022-10-19T01:28:45;5.25;;;1.45;;
48209;SDS011;33999;52.252;9.616;2022-10-19T01:33:23;6.03;;;1.50;;
48209;SDS011;33999;52.252;9.616;2022-10-19T01:36:25;5.47;;;1.30;;
48209;SDS011;33999;52.252;9.616;2022-10-19T01:39:45;8.95;;;1.67;;
48209;SDS011;33999;52.252;9.616;2022-10-19T01:51:20;5.97;;;1.30;;
48209;SDS011;33999;52.252;9.616;2022-10-19T01:55:56;3.15;;;1.10;;
48209;SDS011;33999;52.252;9.616;2022-10-19T01:59:33;4.25;;;1.23;;
48209;SDS011;33999;52.252;9.616;2022-10-19T02:03:12;5.10;;;1.30;;
48209;SDS011;33999;52.252;9.616;2022-10-19T02:06:37;3.88;;;1.20;;
48209;SDS011;33999;52.252;9.616;2022-10-19T02:10:16;4.75;;;1.10;;
48209;SDS011;33999;52.252;9.616;2022-10-19T02:13:34;4.68;;;1.30;;
48209;SDS011;33999;52.252;9.616;2022-10-19T02:17:32;3.13;;;1.25;;
48209;SDS011;33999;52.252;9.616;2022-10-19T02:20:52;6.43;;;1.40;;
48209;SDS011;33999;52.252;9.616;2022-10-19T02:23:57;7.25;;;1.50;;
48209;SDS011;33999;52.252;9.616;2022-10-19T02:27:06;5.53;;;1.30;;
48209;SDS011;33999;52.252;9.616;2022-10-19T02:30:21;6.40;;;1.40;;
48209;SDS011;33999;52.252;9.616;2022-10-19T02:33:27;6.30;;;1.33;;
48209;SDS011;33999;52.252;9.616;2022-10-19T02:36:42;7.15;;;1.23;;
48209;SDS011;33999;52.252;9.616;2022-10-19T02:39:54;7.70;;;1.35;;
48209;SDS011;33999;52.252;9.616;2022-10-19T02:43:36;7.53;;;1.20;;
48209;SDS011;33999;52.252;9.616;2022-10-19T02:46:57;7.43;;;1.55;;
48209;SDS011;33999;52.252;9.616;2022-10-19T02:50:39;7.90;;;1.30;;
48209;SDS011;33999;52.252;9.616;2022-10-19T02:54:16;5.13;;;1.25;;
48209;SDS011;33999;52.252;9.616;2022-10-19T02:57:48;4.88;;;1.00;;
48209;SDS011;33999;52.252;9.616;2022-10-19T03:01:08;5.07;;;1.40;;
48209;SDS011;33999;52.252;9.616;2022-10-19T03:04:23;5.60;;;1.30;;
48209;SDS011;33999;52.252;9.616;2022-10-19T03:07:49;4.15;;;1.50;;
48209;SDS011;33999;52.252;9.616;2022-10-19T03:11:17;7.10;;;1.17;;
48209;SDS011;33999;52.252;9.616;2022-10-19T03:14:38;5.47;;;1.20;;
48209;SDS011;33999;52.252;9.616;2022-10-19T03:17:58;4.18;;;1.20;;
48209;SDS011;33999;52.252;9.616;2022-10-19T03:21:11;6.07;;;1.13;;
48209;SDS011;33999;52.252;9.616;2022-10-19T03:24:43;5.78;;;1.30;;
48209;SDS011;33999;52.252;9.616;2022-10-19T03:29:00;4.43;;;1.30;;
48209;SDS011;33999;52.252;9.616;2022-10-19T03:32:33;5.13;;;1.27;;
48209;SDS011;33999;52.252;9.616;2022-10-19T03:36:38;6.05;;;1.30;;
48209;SDS011;33999;52.252;9.616;2022-10-19T03:43:51;11.00;;;1.55;;
48209;SDS011;33999;52.252;9.616;2022-10-19T03:47:06;3.90;;;1.20;;
48209;SDS011;33999;52.252;9.616;2022-10-19T03:51:11;4.68;;;1.10;;
48209;SDS011;33999;52.252;9.616;2022-10-19T03:54:44;5.97;;;1.25;;
48209;SDS011;33999;52.252;9.616;2022-10-19T03:57:50;7.73;;;1.30;;
48209;SDS011;33999;52.252;9.616;2022-10-19T04:01:55;5.10;;;1.20;;
48209;SDS011;33999;52.252;9.616;2022-10-19T04:05:17;4.15;;;1.35;;
48209;SDS011;33999;52.252;9.616;2022-10-19T04:09:31;4.45;;;1.10;;
48209;SDS011;33999;52.252;9.616;2022-10-19T04:59:28;4.78;;;1.48;;
48209;SDS011;33999;52.252;9.616;2022-10-19T05:02:53;4.10;;;1.50;;
48209;SDS011;33999;52.252;9.616;2022-10-19T05:06:51;5.35;;;1.50;;
48209;SDS011;33999;52.252;9.616;2022-10-19T05:10:54;6.57;;;1.55;;
48209;SDS011;33999;52.252;9.616;2022-10-19T05:14:56;6.95;;;1.30;;
48209;SDS011;33999;52.252;9.616;2022-10-19T05:18:45;4.88;;;1.40;;
48209;SDS011;33999;52.252;9.616;2022-10-19T05:23:13;5.30;;;1.63;;
48209;SDS011;33999;52.252;9.616;2022-10-19T05:26:55;11.05;;;2.10;;
48209;SDS011;33999;52.252;9.616;2022-10-19T05:31:18;9.05;;;1.90;;
48209;SDS011;33999;52.252;9.616;2022-10-19T05:35:05;6.60;;;2.13;;
48209;SDS011;33999;52.252;9.616;2022-10-19T05:39:11;5.82;;;1.58;;
48209;SDS011;33999;52.252;9.616;2022-10-19T05:43:06;8.27;;;2.00;;
48209;SDS011;33999;52.252;9.616;2022-10-19T05:52:18;5.22;;;1.70;;
48209;SDS011;33999;52.252;9.616;2022-10-19T05:56:05;11.20;;;2.08;;
48209;SDS011;33999;52.252;9.616;2022-10-19T05:59:26;7.47;;;1.77;;
48209;SDS011;33999;52.252;9.616;2022-10-19T06:03:17;4.63;;;1.45;;
48209;SDS011;33999;52.252;9.616;2022-10-19T06:07:31;5.68;;;1.50;;
48209;SDS011;33999;52.252;9.616;2022-10-19T06:15:48;9.77;;;2.10;;
48209;SDS011;33999;52.252;9.616;2022-10-19T06:19:44;9.73;;;2.20;;
48209;SDS011;33999;52.252;9.616;2022-10-19T06:23:33;8.88;;;2.10;;
48209;SDS011;33999;52.252;9.616;2022-10-19T06:32:10;6.40;;;1.70;;
48209;SDS011;33999;52.252;9.616;2022-10-19T06:36:11;5.60;;;2.00;;
48209;SDS011;33999;52.252;9.616;2022-10-19T06:44:22;8.40;;;1.70;;
48209;SDS011;33999;52.252;9.616;2022-10-19T06:52:57;5.60;;;2.03;;
48209;SDS011;33999;52.252;9.616;2022-10-19T06:56:48;6.68;;;2.10;;
48209;SDS011;33999;52.252;9.616;2022-10-19T07:06:25;4.50;;;1.80;;
48209;SDS011;33999;52.252;9.616;2022-10-19T07:18:26;7.43;;;2.00;;
48209;SDS011;33999;52.252;9.616;2022-10-19T07:22:37;6.47;;;1.90;;
48209;SDS011;33999;52.252;9.616;2022-10-19T07:26:21;6.40;;;1.90;;
48209;SDS011;33999;52.252;9.616;2022-10-19T07:30:04;6.15;;;2.25;;
48209;SDS011;33999;52.252;9.616;2022-10-19T07:34:15;7.68;;;2.10;;
48209;SDS011;33999;52.252;9.616;2022-10-19T07:38:23;6.07;;;2.10;;
48209;SDS011;33999;52.252;9.616;2022-10-19T07:42:40;9.18;;;2.40;;
48209;SDS011;33999;52.252;9.616;2022-10-19T07:46:51;8.23;;;2.35;;
48209;SDS011;33999;52.252;9.616;2022-10-19T07:50:45;6.60;;;2.00;;
48209;SDS011;33999;52.252;9.616;2022-10-19T07:54:44;5.90;;;2.00;;
48209;SDS011;33999;52.252;9.616;2022-10-19T13:09:07;5.65;;;1.80;;
48209;SDS011;33999;52.252;9.616;2022-10-19T13:43:31;5.18;;;1.20;;
48209;SDS011;33999;52.252;9.616;2022-10-19T14:09:18;7.43;;;1.60;;
48209;SDS011;33999;52.252;9.616;2022-10-19T19:43:14;10.70;;;3.03;;
